createdAt,value
2019-01-10T00:05:36.905Z,4.29
2019-01-10T00:11:31.843Z,6.04
2019-01-10T00:17:26.838Z,5.73
2019-01-10T00:23:21.844Z,6.54
2019-01-10T00:29:16.870Z,4.21
2019-01-10T00:35:11.869Z,3.9
2019-01-10T00:41:06.860Z,4.38
2019-01-10T00:47:01.891Z,4.64
2019-01-10T00:52:56.976Z,4.58
2019-01-10T00:58:51.876Z,3.09
2019-01-10T01:04:46.946Z,4.63
2019-01-10T01:10:41.877Z,6.11
2019-01-10T01:16:36.900Z,5.91
2019-01-10T01:22:31.933Z,3.46
2019-01-10T01:28:26.894Z,5.39
2019-01-10T01:34:21.974Z,5.52
2019-01-10T01:40:16.895Z,5.83
2019-01-10T01:46:11.900Z,5.03
2019-01-10T01:52:06.926Z,8.34
2019-01-10T01:58:01.935Z,6.7
2019-01-10T02:03:56.955Z,6.7
2019-01-10T02:09:51.941Z,8.27
2019-01-10T02:15:46.908Z,6.64
2019-01-10T02:21:41.951Z,5.84
2019-01-10T02:27:36.943Z,8.18
2019-01-10T02:33:31.933Z,11.17
2019-01-10T02:39:26.952Z,9.66
2019-01-10T02:45:21.956Z,8.17
2019-01-10T02:51:16.975Z,6.2
2019-01-10T02:57:11.955Z,7.62
2019-01-10T03:03:07.002Z,13.16
2019-01-10T03:09:01.955Z,9.09
2019-01-10T03:14:57.100Z,10.67
2019-01-10T03:20:52.655Z,8.46
2019-01-10T03:26:46.994Z,8.26
2019-01-10T03:32:42.014Z,7.92
2019-01-10T03:38:36.989Z,9.44
2019-01-10T03:44:34.151Z,11.12
2019-01-10T03:50:26.997Z,8.08
2019-01-10T03:56:21.983Z,10.3
2019-01-10T04:02:16.965Z,9.08
2019-01-10T04:08:11.988Z,7
2019-01-10T04:14:07.007Z,10.68
2019-01-10T04:20:01.992Z,7.35
2019-01-10T04:25:57.016Z,6.5
2019-01-10T04:31:51.982Z,6.55
2019-01-10T04:37:47.027Z,6.81
2019-01-10T04:43:42.035Z,6.23
2019-01-10T04:49:37.002Z,8.69
2019-01-10T04:55:32.008Z,9.17
2019-01-10T05:01:27.023Z,7.82
2019-01-10T05:07:22.065Z,6.72
2019-01-10T05:13:17.051Z,8.1
2019-01-10T05:19:12.006Z,8.17
2019-01-10T05:25:06.993Z,8.72
2019-01-10T05:31:02.075Z,6.92
2019-01-10T05:36:57.019Z,8.86
2019-01-10T05:42:52.020Z,7.95
2019-01-10T05:48:47.452Z,6.96
2019-01-10T05:54:42.140Z,7.38
2019-01-10T06:00:37.076Z,8.34
2019-01-10T06:06:32.149Z,7.86
2019-01-10T06:12:27.033Z,9.17
2019-01-10T06:18:22.063Z,8.63
2019-01-10T06:24:17.036Z,7
2019-01-10T06:30:12.031Z,6.29
2019-01-10T06:36:07.043Z,8.76
2019-01-10T06:42:02.039Z,10.74
2019-01-10T06:47:57.040Z,6.63
2019-01-10T06:53:52.192Z,9.43
2019-01-10T06:59:47.070Z,5.77
2019-01-10T07:05:42.118Z,13.76
2019-01-10T07:11:37.157Z,15.95
2019-01-10T07:17:32.063Z,12.18
2019-01-10T07:23:27.053Z,10.85
2019-01-10T07:29:22.069Z,8.56
2019-01-10T07:35:17.083Z,6.8
2019-01-10T07:41:12.083Z,9.42
2019-01-10T07:47:08.254Z,8.61
2019-01-10T07:53:02.127Z,6.57
2019-01-10T07:58:57.087Z,6.42
2019-01-10T08:04:52.098Z,6.9
2019-01-10T08:10:47.091Z,8.85
2019-01-10T08:16:42.163Z,10.89
2019-01-10T08:22:37.096Z,12.22
2019-01-10T08:28:32.115Z,16.01
2019-01-10T08:34:27.107Z,17.29
2019-01-10T08:40:22.105Z,18
2019-01-10T08:46:18.867Z,12.59
2019-01-10T08:52:12.094Z,11.59
2019-01-10T08:58:07.137Z,13.46
2019-01-10T09:04:02.158Z,28.65
2019-01-10T09:09:57.159Z,34.56
2019-01-10T09:15:52.143Z,31.85
2019-01-10T09:21:47.113Z,35.62
2019-01-10T09:27:42.194Z,31.29
2019-01-10T09:33:39.543Z,60.47
2019-01-10T09:39:32.134Z,61.89
2019-01-10T09:45:27.129Z,67.48
2019-01-10T09:51:22.176Z,61.51
2019-01-10T09:57:17.147Z,56.58
2019-01-10T10:03:12.151Z,47.46
2019-01-10T10:09:07.166Z,47.65
2019-01-10T10:15:02.154Z,43.93
2019-01-10T10:20:57.162Z,44.67
2019-01-10T10:26:52.166Z,55.24
2019-01-10T10:32:47.241Z,26.8
2019-01-10T10:38:42.196Z,31.06
2019-01-10T10:44:37.170Z,4.97
2019-01-10T10:50:32.161Z,6.73
2019-01-10T10:56:27.190Z,20.94
2019-01-10T11:02:22.195Z,5.5
2019-01-10T11:08:17.179Z,4.21
2019-01-10T11:14:12.200Z,4.17
2019-01-10T11:20:07.247Z,5.84
2019-01-10T11:26:02.206Z,4.13
2019-01-10T11:31:57.217Z,3.7
2019-01-10T11:37:52.198Z,3.86
2019-01-10T11:43:47.256Z,2.85
2019-01-10T11:49:42.199Z,4.13
2019-01-10T11:55:37.211Z,4.09
2019-01-10T12:01:32.200Z,3.21
2019-01-10T12:07:27.208Z,5.21
2019-01-10T12:13:22.245Z,3.22
2019-01-10T12:19:17.312Z,4.27
2019-01-10T12:25:12.217Z,2
2019-01-10T12:31:07.231Z,2.08
2019-01-10T12:37:02.230Z,2.23
2019-01-10T12:42:57.247Z,3.62
2019-01-10T12:48:52.261Z,1.8
2019-01-10T12:54:47.254Z,2.86
2019-01-10T13:00:42.237Z,1.59
2019-01-10T13:06:37.231Z,1.85
2019-01-10T13:12:32.272Z,1.59
2019-01-10T13:18:27.265Z,5.05
2019-01-10T13:24:22.266Z,2.4
2019-01-10T13:30:17.282Z,1.59
2019-01-10T13:36:12.334Z,1.35
2019-01-10T13:42:07.309Z,2.44
2019-01-10T13:48:02.281Z,1.37
2019-01-10T13:53:57.282Z,1.27
2019-01-10T13:59:52.269Z,1.68
2019-01-10T14:05:47.281Z,1.58
2019-01-10T14:11:42.285Z,2.1
2019-01-10T14:17:37.317Z,1.29
2019-01-10T14:23:32.295Z,3.27
2019-01-10T14:29:27.344Z,1.68
2019-01-10T14:35:22.295Z,1.58
2019-01-10T14:41:17.296Z,1.21
2019-01-10T14:47:12.306Z,2.53
2019-01-10T14:53:07.298Z,1.52
2019-01-10T14:59:02.321Z,1.54
2019-01-10T15:04:59.544Z,1.7
2019-01-10T15:10:52.339Z,1.36
2019-01-10T15:16:47.343Z,2.78
2019-01-10T15:22:42.501Z,2.67
2019-01-10T15:28:37.325Z,3.61
2019-01-10T15:34:32.378Z,2.06
2019-01-10T15:40:27.321Z,1.89
2019-01-10T15:46:22.345Z,1.98
2019-01-10T15:52:17.324Z,1.98
2019-01-10T15:58:12.347Z,1.1
2019-01-10T16:04:07.640Z,2.24
2019-01-10T16:10:02.351Z,2.93
2019-01-10T16:15:57.355Z,7.34
2019-01-10T16:21:52.340Z,1.46
2019-01-10T16:27:47.372Z,1.5
2019-01-10T16:33:42.361Z,1.59
2019-01-10T16:39:37.398Z,3.53
2019-01-10T16:45:32.364Z,2.39
2019-01-10T16:51:27.378Z,2.78
2019-01-10T16:57:22.370Z,2.44
2019-01-10T17:03:17.374Z,4.97
2019-01-10T17:09:17.547Z,5.12
2019-01-10T17:15:07.368Z,1.82
2019-01-10T17:21:02.402Z,2.31
2019-01-10T17:26:57.398Z,3.19
2019-01-10T17:32:52.406Z,2.1
2019-01-10T17:38:47.367Z,2.99
2019-01-10T17:44:42.401Z,2.68
2019-01-10T17:50:37.415Z,1.94
2019-01-10T17:56:32.701Z,2.13
2019-01-10T18:02:27.957Z,2.9
2019-01-10T18:08:22.423Z,3.07
2019-01-10T18:14:17.452Z,2.53
2019-01-10T18:20:12.459Z,2.64
2019-01-10T18:26:07.416Z,3.22
2019-01-10T18:32:02.425Z,2.81
2019-01-10T18:37:57.430Z,1.94
2019-01-10T18:43:52.421Z,12.08
2019-01-10T18:49:47.438Z,3.05
2019-01-10T18:55:42.441Z,2.72
2019-01-10T19:01:37.429Z,3.62
2019-01-10T19:07:32.486Z,3.25
2019-01-10T19:13:27.443Z,2.51
2019-01-10T19:19:22.468Z,1.85
2019-01-10T19:25:17.447Z,2.09
2019-01-10T19:31:12.451Z,3.25
2019-01-10T19:37:07.444Z,5.79
2019-01-10T19:43:02.466Z,4
2019-01-10T19:48:57.456Z,3.62
2019-01-10T19:54:52.450Z,3.61
2019-01-10T20:00:47.443Z,3.09
2019-01-10T20:06:42.562Z,2.36
2019-01-10T20:12:37.499Z,2.31
2019-01-10T20:18:32.512Z,4.19
2019-01-10T20:24:27.468Z,2.36
2019-01-10T20:30:22.510Z,3.21
2019-01-10T20:36:17.525Z,2.23
2019-01-10T20:42:12.524Z,2.25
2019-01-10T20:48:07.487Z,3.58
2019-01-10T20:54:02.559Z,10.87
2019-01-10T20:59:57.523Z,6.63
2019-01-10T21:05:52.516Z,2.27
2019-01-10T21:11:47.533Z,3.53
2019-01-10T21:17:42.509Z,2.99
2019-01-10T21:23:37.503Z,6.71
2019-01-10T21:29:32.518Z,3.23
2019-01-10T21:35:27.513Z,2.18
2019-01-10T21:41:22.514Z,2.27
2019-01-10T21:47:17.513Z,2.18
2019-01-10T21:53:12.582Z,2.63
2019-01-10T21:59:07.531Z,2.12
2019-01-10T22:05:02.588Z,5.29
2019-01-10T22:10:57.534Z,3.15
2019-01-10T22:16:52.548Z,2.66
2019-01-10T22:22:47.575Z,6.63
2019-01-10T22:28:42.559Z,8.2
2019-01-10T22:34:37.554Z,10.22
2019-01-10T22:40:32.569Z,3.7
2019-01-10T22:46:27.538Z,2.98
2019-01-10T22:52:22.585Z,3.44
2019-01-10T22:58:17.557Z,3.56
2019-01-10T23:04:12.563Z,2.16
2019-01-10T23:10:07.559Z,5.42
2019-01-10T23:16:02.567Z,2.47
2019-01-10T23:21:57.620Z,3.42
2019-01-10T23:27:52.637Z,3.47
2019-01-10T23:33:47.566Z,2.18
2019-01-10T23:39:42.671Z,6.03
2019-01-10T23:45:37.572Z,5.14
2019-01-10T23:51:32.587Z,5.7
2019-01-10T23:57:27.580Z,3.68
